createdAt,value
2018-05-16T00:00:35.388Z,15.80
2018-05-16T00:03:06.864Z,15.70
2018-05-16T00:05:38.416Z,15.64
2018-05-16T00:08:08.439Z,15.75
2018-05-16T00:10:38.957Z,15.68
2018-05-16T00:13:08.972Z,15.68
2018-05-16T00:15:40.315Z,15.63
2018-05-16T00:18:10.538Z,15.64
2018-05-16T00:20:40.972Z,15.60
2018-05-16T00:23:11.800Z,15.53
2018-05-16T00:25:43.627Z,15.56
2018-05-16T00:28:14.704Z,15.48
2018-05-16T00:30:44.885Z,15.62
2018-05-16T00:33:16.362Z,15.69
2018-05-16T00:35:48.443Z,15.53
2018-05-16T00:38:20.179Z,15.66
2018-05-16T00:40:51.753Z,15.70
2018-05-16T00:43:23.273Z,15.60
2018-05-16T00:45:54.200Z,15.62
2018-05-16T00:48:25.119Z,15.64
2018-05-16T00:51:33.625Z,15.75
2018-05-16T00:54:03.694Z,15.72
2018-05-16T00:56:34.169Z,15.74
2018-05-16T00:59:04.291Z,15.64
2018-05-16T01:01:34.190Z,15.66
2018-05-16T01:04:05.527Z,15.58
2018-05-16T01:06:35.954Z,15.65
2018-05-16T01:09:09.361Z,15.67
2018-05-16T01:11:39.053Z,15.61
2018-05-16T01:14:10.054Z,15.52
2018-05-16T01:16:41.674Z,15.65
2018-05-16T01:19:13.255Z,15.55
2018-05-16T01:21:44.034Z,15.38
2018-05-16T01:24:14.811Z,15.44
2018-05-16T01:26:44.770Z,15.55
2018-05-16T01:29:16.134Z,15.46
2018-05-16T01:31:46.429Z,15.33
2018-05-16T01:34:17.940Z,15.40
2018-05-16T01:36:49.395Z,15.38
2018-05-16T01:39:20.917Z,15.27
2018-05-16T01:41:52.600Z,15.30
2018-05-16T01:44:24.064Z,15.21
2018-05-16T01:46:54.055Z,15.17
2018-05-16T01:49:25.711Z,15.18
2018-05-16T01:51:56.926Z,15.04
2018-05-16T01:54:26.879Z,15.12
2018-05-16T01:56:56.917Z,15.08
2018-05-16T01:59:27.785Z,15.14
2018-05-16T02:01:57.014Z,14.92
2018-05-16T02:04:27.015Z,15.04
2018-05-16T02:06:58.480Z,14.99
2018-05-16T02:09:30.069Z,15.01
2018-05-16T02:12:01.525Z,14.95
2018-05-16T02:14:33.140Z,14.97
2018-05-16T02:17:04.307Z,15.01
2018-05-16T02:19:35.252Z,14.96
2018-05-16T02:22:05.033Z,14.94
2018-05-16T02:24:36.949Z,14.84
2018-05-16T02:27:08.908Z,15.00
2018-05-16T02:29:40.284Z,14.89
2018-05-16T02:32:11.591Z,14.76
2018-05-16T02:34:43.139Z,14.76
2018-05-16T02:37:13.797Z,14.81
2018-05-16T02:39:45.805Z,14.85
2018-05-16T02:42:16.028Z,14.87
2018-05-16T02:44:46.063Z,14.81
2018-05-16T02:47:16.262Z,14.92
2018-05-16T02:49:46.183Z,14.99
2018-05-16T02:52:16.190Z,14.97
2018-05-16T02:54:47.658Z,15.00
2018-05-16T02:57:18.962Z,15.06
2018-05-16T02:59:50.859Z,15.18
2018-05-16T03:02:22.502Z,15.28
2018-05-16T03:04:53.971Z,15.20
2018-05-16T03:07:24.070Z,15.20
2018-05-16T03:09:55.453Z,15.30
2018-05-16T03:12:25.635Z,15.39
2018-05-16T03:14:57.080Z,15.53
2018-05-16T03:17:27.709Z,15.44
2018-05-16T03:19:58.964Z,15.64
2018-05-16T03:22:28.458Z,15.53
2018-05-16T03:25:00.105Z,15.54
2018-05-16T03:27:31.535Z,15.53
2018-05-16T03:30:02.304Z,15.59
2018-05-16T03:32:33.835Z,15.72
2018-05-16T03:35:03.753Z,15.62
2018-05-16T03:37:35.559Z,15.70
2018-05-16T03:40:07.026Z,15.59
2018-05-16T03:42:38.410Z,15.56
2018-05-16T03:45:09.816Z,15.75
2018-05-16T03:47:41.339Z,15.73
2018-05-16T03:50:11.446Z,15.71
2018-05-16T03:52:41.396Z,15.65
2018-05-16T03:55:11.372Z,15.85
2018-05-16T03:58:29.972Z,15.74
2018-05-16T04:01:41.552Z,15.89
2018-05-16T04:04:19.357Z,15.92
2018-05-16T04:06:50.886Z,15.92
2018-05-16T04:09:22.202Z,15.98
2018-05-16T04:11:53.694Z,16.16
2018-05-16T04:14:23.804Z,16.33
2018-05-16T04:16:55.327Z,16.50
2018-05-16T04:19:25.335Z,16.71
2018-05-16T04:21:55.466Z,17.17
2018-05-16T04:24:26.730Z,17.27
2018-05-16T04:26:56.671Z,17.09
2018-05-16T04:29:28.979Z,17.09
2018-05-16T04:31:58.925Z,17.14
2018-05-16T04:34:30.450Z,17.06
2018-05-16T04:36:59.901Z,17.13
2018-05-16T04:39:31.282Z,17.49
2018-05-16T04:42:02.805Z,17.07
2018-05-16T04:44:32.937Z,17.05
2018-05-16T04:47:04.362Z,16.91
2018-05-16T04:49:35.011Z,16.89
2018-05-16T04:52:05.023Z,16.89
2018-05-16T04:54:35.692Z,16.87
2018-05-16T04:57:05.788Z,16.96
2018-05-16T04:59:37.956Z,16.95
2018-05-16T05:02:08.872Z,17.01
2018-05-16T05:04:39.498Z,17.07
2018-05-16T05:07:08.708Z,17.22
2018-05-16T05:09:40.179Z,18.29
2018-05-16T05:12:11.698Z,18.20
2018-05-16T05:14:41.717Z,18.10
2018-05-16T05:17:13.248Z,18.02
2018-05-16T05:19:43.204Z,18.23
2018-05-16T05:22:14.739Z,18.36
2018-05-16T05:24:46.230Z,18.56
2018-05-16T05:27:16.750Z,18.23
2018-05-16T05:29:48.411Z,18.36
2018-05-16T05:32:19.403Z,18.41
2018-05-16T05:34:51.402Z,18.44
2018-05-16T05:37:22.827Z,18.10
2018-05-16T05:39:54.189Z,18.15
2018-05-16T05:42:25.533Z,18.18
2018-05-16T05:44:57.316Z,18.16
2018-05-16T05:47:28.706Z,17.96
2018-05-16T05:49:58.705Z,18.05
2018-05-16T05:52:30.201Z,18.07
2018-05-16T05:55:00.192Z,17.94
2018-05-16T05:57:31.126Z,18.02
2018-05-16T06:00:01.867Z,18.13
2018-05-16T06:02:32.355Z,18.28
2018-05-16T06:05:03.716Z,18.19
2018-05-16T06:07:35.137Z,18.07
2018-05-16T06:10:06.716Z,18.13
2018-05-16T06:12:36.725Z,18.20
2018-05-16T06:15:08.540Z,18.24
2018-05-16T06:17:40.045Z,18.38
2018-05-16T06:20:11.386Z,18.39
2018-05-16T06:22:42.975Z,18.41
2018-05-16T06:25:14.334Z,18.23
2018-05-16T06:27:44.459Z,18.21
2018-05-16T06:30:14.673Z,18.21
2018-05-16T06:32:44.654Z,18.20
2018-05-16T06:35:16.083Z,18.30
2018-05-16T06:37:47.355Z,18.17
2018-05-16T06:40:17.581Z,18.39
2018-05-16T06:42:47.671Z,18.42
2018-05-16T06:45:16.969Z,18.14
2018-05-16T06:47:47.055Z,18.28
2018-05-16T06:50:16.512Z,18.38
2018-05-16T06:52:46.605Z,18.22
2018-05-16T06:55:16.819Z,18.14
2018-05-16T06:57:48.116Z,17.99
2018-05-16T07:00:19.848Z,17.95
2018-05-16T07:02:51.215Z,17.71
2018-05-16T07:05:22.757Z,17.80
2018-05-16T07:07:54.422Z,17.44
2018-05-16T07:10:26.444Z,17.43
2018-05-16T07:12:57.986Z,17.31
2018-05-16T07:15:27.921Z,17.30
2018-05-16T07:17:59.043Z,17.34
2018-05-16T07:20:29.660Z,17.15
2018-05-16T07:23:01.030Z,17.22
2018-05-16T07:25:32.833Z,17.14
2018-05-16T07:28:02.962Z,16.94
2018-05-16T07:30:33.028Z,17.05
2018-05-16T07:33:04.360Z,16.93
2018-05-16T07:35:36.118Z,17.02
2018-05-16T07:38:06.109Z,17.09
2018-05-16T07:40:37.536Z,17.06
2018-05-16T07:43:09.024Z,16.95
2018-05-16T07:45:40.576Z,16.90
2018-05-16T07:48:10.515Z,16.95
2018-05-16T07:50:39.919Z,16.79
2018-05-16T07:53:11.360Z,16.76
2018-05-16T07:55:42.793Z,16.90
2018-05-16T07:58:12.765Z,16.77
2018-05-16T08:00:42.519Z,16.98
2018-05-16T08:03:12.429Z,16.91
2018-05-16T08:05:42.457Z,17.03
2018-05-16T08:08:12.409Z,17.04
2018-05-16T08:10:44.106Z,16.88
2018-05-16T08:13:14.132Z,16.93
2018-05-16T08:15:43.873Z,17.03
2018-05-16T08:18:14.455Z,17.17
2018-05-16T08:20:44.597Z,17.02
2018-05-16T08:23:14.079Z,17.04
2018-05-16T08:25:45.490Z,17.04
2018-05-16T08:28:17.139Z,17.21
2018-05-16T08:30:47.162Z,17.05
2018-05-16T08:33:18.613Z,17.16
2018-05-16T08:35:49.478Z,17.25
2018-05-16T08:38:19.639Z,17.23
2018-05-16T08:40:50.248Z,17.13
2018-05-16T08:43:21.712Z,17.28
2018-05-16T08:45:53.560Z,17.31
2018-05-16T08:48:24.916Z,17.33
2018-05-16T08:50:56.771Z,17.51
2018-05-16T08:53:28.800Z,17.48
2018-05-16T08:55:58.624Z,17.45
2018-05-16T08:58:30.047Z,17.66
2018-05-16T09:01:00.058Z,17.55
2018-05-16T09:03:31.448Z,17.74
2018-05-16T09:06:02.938Z,17.74
2018-05-16T09:08:33.858Z,17.83
2018-05-16T09:11:04.854Z,17.85
2018-05-16T09:13:34.102Z,18.06
2018-05-16T09:16:05.550Z,18.20
2018-05-16T09:18:36.924Z,18.35
2018-05-16T09:21:07.799Z,18.46
2018-05-16T09:23:39.286Z,18.60
2018-05-16T09:26:10.572Z,18.61
2018-05-16T09:28:41.104Z,18.67
2018-05-16T09:31:11.103Z,18.72
2018-05-16T09:33:41.075Z,18.95
2018-05-16T09:36:13.176Z,19.18
2018-05-16T09:38:43.194Z,19.37
2018-05-16T09:41:14.605Z,19.51
2018-05-16T09:43:46.191Z,19.66
2018-05-16T09:46:16.233Z,19.60
2018-05-16T09:48:47.688Z,19.68
2018-05-16T09:51:19.298Z,19.61
2018-05-16T09:53:50.984Z,19.96
2018-05-16T09:56:24.700Z,19.94
2018-05-16T09:58:55.011Z,20.17
2018-05-16T10:01:24.936Z,20.23
2018-05-16T10:03:55.763Z,20.39
2018-05-16T10:06:27.176Z,20.70
2018-05-16T10:08:58.814Z,20.84
2018-05-16T10:11:29.731Z,21.07
2018-05-16T10:14:00.505Z,21.63
2018-05-16T10:16:31.833Z,21.39
2018-05-16T10:19:03.448Z,21.64
2018-05-16T10:21:34.771Z,21.50
2018-05-16T10:24:06.163Z,21.64
2018-05-16T10:26:35.253Z,21.74
2018-05-16T10:29:06.635Z,21.75
2018-05-16T10:31:36.572Z,21.80
2018-05-16T10:34:05.727Z,21.66
2018-05-16T10:36:37.145Z,21.46
2018-05-16T10:39:07.778Z,21.74
2018-05-16T10:41:38.612Z,21.47
2018-05-16T10:44:09.901Z,21.57
2018-05-16T10:46:39.765Z,21.25
2018-05-16T10:49:11.123Z,21.11
2018-05-16T10:51:41.960Z,21.14
2018-05-16T10:54:13.537Z,20.97
2018-05-16T10:56:44.493Z,21.38
2018-05-16T10:59:15.586Z,21.47
2018-05-16T11:01:45.497Z,21.50
2018-05-16T11:04:16.966Z,21.47
2018-05-16T11:06:48.428Z,21.29
2018-05-16T11:09:19.835Z,21.34
2018-05-16T11:11:49.775Z,21.66
2018-05-16T11:14:20.385Z,21.93
2018-05-16T11:16:51.729Z,21.84
2018-05-16T11:19:21.647Z,22.02
2018-05-16T11:21:53.996Z,22.18
2018-05-16T11:24:25.319Z,22.24
2018-05-16T11:26:56.833Z,21.76
2018-05-16T11:29:28.175Z,22.34
2018-05-16T11:31:59.305Z,22.21
2018-05-16T11:34:29.031Z,22.67
2018-05-16T11:36:59.055Z,22.74
2018-05-16T11:39:28.116Z,22.56
2018-05-16T11:41:59.522Z,23.06
2018-05-16T11:44:29.442Z,23.25
2018-05-16T11:47:01.047Z,23.02
2018-05-16T11:49:30.765Z,23.09
2018-05-16T11:52:02.150Z,23.06
2018-05-16T11:54:33.930Z,22.79
2018-05-16T11:57:05.245Z,22.91
2018-05-16T11:59:36.686Z,23.02
2018-05-16T12:02:05.781Z,23.24
2018-05-16T12:04:36.428Z,23.45
2018-05-16T12:07:08.292Z,22.81
2018-05-16T12:09:38.176Z,22.86
2018-05-16T12:12:09.857Z,22.79
2018-05-16T12:14:41.652Z,22.35
2018-05-16T12:17:12.003Z,22.47
2018-05-16T12:19:41.839Z,23.00
2018-05-16T12:22:13.216Z,23.04
2018-05-16T12:24:44.623Z,22.93
2018-05-16T12:27:14.548Z,23.06
2018-05-16T12:29:45.655Z,23.41
2018-05-16T12:32:16.934Z,23.39
2018-05-16T12:34:46.086Z,23.51
2018-05-16T12:37:17.455Z,23.39
2018-05-16T12:39:48.896Z,23.60
2018-05-16T12:42:20.396Z,23.32
2018-05-16T12:44:51.034Z,23.51
2018-05-16T12:47:20.941Z,23.17
2018-05-16T12:49:52.841Z,23.29
2018-05-16T12:52:22.719Z,23.50
2018-05-16T12:54:54.155Z,23.08
2018-05-16T12:57:24.754Z,23.33
2018-05-16T12:59:53.809Z,22.67
2018-05-16T13:02:23.704Z,22.86
2018-05-16T13:04:53.607Z,22.94
2018-05-16T13:07:23.542Z,23.01
2018-05-16T13:09:54.765Z,23.24
2018-05-16T13:12:24.590Z,22.85
2018-05-16T13:14:56.012Z,23.08
2018-05-16T13:17:27.476Z,22.96
2018-05-16T13:19:58.846Z,22.50
2018-05-16T13:22:29.063Z,22.51
2018-05-16T13:24:59.049Z,22.67
2018-05-16T13:27:28.898Z,22.54
2018-05-16T13:30:00.352Z,22.65
2018-05-16T13:32:30.160Z,22.85
2018-05-16T13:35:00.083Z,22.75
2018-05-16T13:37:30.103Z,22.71
2018-05-16T13:39:59.314Z,22.31
2018-05-16T13:42:30.255Z,22.18
2018-05-16T13:45:00.173Z,22.03
2018-05-16T13:47:31.647Z,21.85
2018-05-16T13:50:01.578Z,21.96
2018-05-16T13:52:33.279Z,22.01
2018-05-16T13:55:04.550Z,21.05
2018-05-16T13:57:34.324Z,20.50
2018-05-16T14:00:04.449Z,20.97
2018-05-16T14:02:34.550Z,21.29
2018-05-16T14:05:06.484Z,20.90
2018-05-16T14:07:37.952Z,20.52
2018-05-16T14:10:09.421Z,20.51
2018-05-16T14:12:39.331Z,20.37
2018-05-16T14:15:09.258Z,20.73
2018-05-16T14:17:39.252Z,21.14
2018-05-16T14:20:10.520Z,20.90
2018-05-16T14:22:42.151Z,20.91
2018-05-16T14:25:13.565Z,21.56
2018-05-16T14:27:45.063Z,21.82
2018-05-16T14:30:16.855Z,21.37
2018-05-16T14:32:46.828Z,21.33
2018-05-16T14:35:16.719Z,21.22
2018-05-16T14:37:48.304Z,20.95
2018-05-16T14:40:17.389Z,20.51
2018-05-16T14:42:47.217Z,20.84
2018-05-16T14:45:18.295Z,20.59
2018-05-16T14:47:49.677Z,21.42
2018-05-16T14:50:19.613Z,21.24
2018-05-16T14:52:49.533Z,20.97
2018-05-16T14:55:19.446Z,21.13
2018-05-16T14:57:49.375Z,20.75
2018-05-16T15:00:20.467Z,20.47
2018-05-16T15:02:51.966Z,20.65
2018-05-16T15:05:23.039Z,20.28
2018-05-16T15:07:54.420Z,20.14
2018-05-16T15:10:23.200Z,20.46
2018-05-16T15:12:53.140Z,20.34
2018-05-16T15:15:23.584Z,19.98
2018-05-16T15:17:52.889Z,19.89
2018-05-16T15:20:21.947Z,20.32
2018-05-16T15:22:51.882Z,20.45
2018-05-16T15:25:23.330Z,20.26
2018-05-16T15:27:52.413Z,19.39
2018-05-16T15:30:23.321Z,19.37
2018-05-16T15:32:53.312Z,18.89
2018-05-16T15:35:24.826Z,18.98
2018-05-16T15:37:54.746Z,18.94
2018-05-16T15:40:26.276Z,18.76
2018-05-16T15:42:56.122Z,18.94
2018-05-16T15:45:26.021Z,18.89
2018-05-16T15:47:57.393Z,18.97
2018-05-16T15:50:27.206Z,18.60
2018-05-16T15:52:58.791Z,18.81
2018-05-16T15:55:28.738Z,19.27
2018-05-16T15:58:00.118Z,19.14
2018-05-16T16:00:31.584Z,18.57
2018-05-16T16:03:01.516Z,18.71
2018-05-16T16:05:31.391Z,18.48
2018-05-16T16:08:03.116Z,18.66
2018-05-16T16:10:34.543Z,18.66
2018-05-16T16:13:05.982Z,18.51
2018-05-16T16:15:37.616Z,18.33
2018-05-16T16:18:11.748Z,18.24
2018-05-16T16:20:43.028Z,17.93
2018-05-16T16:23:14.412Z,18.17
2018-05-16T16:25:44.452Z,17.88
2018-05-16T16:28:15.114Z,17.90
2018-05-16T16:30:45.119Z,18.16
2018-05-16T16:33:16.543Z,17.88
2018-05-16T16:35:46.544Z,17.52
2018-05-16T16:38:17.907Z,17.67
2018-05-16T16:40:49.267Z,17.48
2018-05-16T16:43:21.128Z,17.93
2018-05-16T16:45:51.044Z,17.47
2018-05-16T16:48:22.559Z,17.26
2018-05-16T16:50:53.921Z,17.40
2018-05-16T16:53:25.484Z,17.18
2018-05-16T16:55:57.442Z,17.02
2018-05-16T16:58:28.570Z,16.81
2018-05-16T17:01:00.061Z,16.86
2018-05-16T17:03:31.437Z,16.88
2018-05-16T17:06:02.078Z,16.95
2018-05-16T17:08:31.999Z,16.74
2018-05-16T17:11:03.397Z,16.45
2018-05-16T17:13:33.458Z,16.38
2018-05-16T17:16:03.444Z,16.42
2018-05-16T17:18:33.907Z,16.65
2018-05-16T17:21:05.890Z,16.60
2018-05-16T17:23:38.637Z,16.74
2018-05-16T17:26:11.771Z,16.50
2018-05-16T17:28:42.163Z,16.43
2018-05-16T17:31:13.485Z,16.42
2018-05-16T17:33:43.709Z,16.60
2018-05-16T17:36:13.362Z,16.75
2018-05-16T17:38:42.549Z,16.41
2018-05-16T17:41:14.229Z,16.49
2018-05-16T17:43:44.198Z,16.53
2018-05-16T17:46:14.903Z,16.43
2018-05-16T17:48:46.257Z,16.19
2018-05-16T17:51:17.620Z,16.36
2018-05-16T17:53:47.309Z,16.13
2018-05-16T17:56:17.129Z,16.22
2018-05-16T17:58:47.127Z,16.00
2018-05-16T18:01:18.617Z,16.03
2018-05-16T18:03:48.604Z,16.00
2018-05-16T18:06:18.512Z,15.93
2018-05-16T18:08:49.733Z,15.84
2018-05-16T18:11:21.552Z,15.82
2018-05-16T18:14:31.660Z,15.76
2018-05-16T18:17:29.497Z,15.74
2018-05-16T18:19:59.408Z,15.61
2018-05-16T18:22:32.223Z,15.43
2018-05-16T18:25:02.806Z,15.75
2018-05-16T18:27:33.683Z,15.47
2018-05-16T18:30:05.132Z,15.50
2018-05-16T18:32:35.547Z,15.29
2018-05-16T18:35:06.196Z,15.04
2018-05-16T18:37:37.603Z,15.22
2018-05-16T18:40:08.549Z,15.14
2018-05-16T18:42:38.410Z,15.14
2018-05-16T18:45:09.455Z,14.97
2018-05-16T18:47:41.698Z,15.02
2018-05-16T18:50:13.287Z,14.90
2018-05-16T18:52:44.675Z,14.99
2018-05-16T18:55:16.073Z,14.92
2018-05-16T18:57:46.433Z,14.89
2018-05-16T19:00:17.379Z,14.91
2018-05-16T19:02:49.559Z,14.85
2018-05-16T19:05:21.809Z,14.79
2018-05-16T19:07:51.663Z,14.89
2018-05-16T19:10:23.094Z,14.99
2018-05-16T19:12:53.110Z,14.80
2018-05-16T19:15:22.873Z,14.73
2018-05-16T19:17:54.921Z,14.69
2018-05-16T19:20:25.408Z,14.58
2018-05-16T19:22:56.910Z,14.57
2018-05-16T19:25:26.915Z,14.48
2018-05-16T19:27:57.020Z,14.63
2018-05-16T19:30:30.995Z,14.76
2018-05-16T19:33:01.618Z,14.70
2018-05-16T19:35:34.079Z,14.61
2018-05-16T19:38:03.973Z,14.67
2018-05-16T19:40:35.868Z,14.38
2018-05-16T19:43:07.933Z,14.37
2018-05-16T19:45:39.381Z,14.43
2018-05-16T19:48:10.770Z,14.37
2018-05-16T19:50:40.477Z,14.30
2018-05-16T19:53:11.887Z,14.32
2018-05-16T19:55:43.414Z,14.32
2018-05-16T19:58:14.854Z,14.34
2018-05-16T20:00:44.190Z,14.13
2018-05-16T20:03:15.071Z,14.26
2018-05-16T20:05:45.631Z,14.07
2018-05-16T20:08:15.175Z,14.06
2018-05-16T20:10:46.706Z,14.06
2018-05-16T20:13:16.330Z,14.08
2018-05-16T20:15:48.377Z,13.89
2018-05-16T20:18:20.569Z,13.84
2018-05-16T20:20:50.535Z,13.81
2018-05-16T20:23:22.160Z,13.73
2018-05-16T20:25:51.718Z,13.71
2018-05-16T20:28:23.212Z,13.67
2018-05-16T20:30:53.140Z,13.76
2018-05-16T20:33:24.370Z,13.61
2018-05-16T20:35:54.072Z,13.59
2018-05-16T20:38:24.599Z,13.69
2018-05-16T20:40:55.682Z,13.68
2018-05-16T20:43:26.861Z,13.41
2018-05-16T20:45:58.954Z,13.35
2018-05-16T20:48:29.516Z,13.21
2018-05-16T20:51:00.876Z,13.30
2018-05-16T20:53:32.190Z,13.22
2018-05-16T20:56:04.638Z,13.09
2018-05-16T20:58:34.599Z,13.01
2018-05-16T21:01:07.177Z,12.93
2018-05-16T21:03:37.717Z,12.96
2018-05-16T21:06:09.107Z,12.90
2018-05-16T21:08:39.135Z,12.84
2018-05-16T21:11:08.908Z,12.84
2018-05-16T21:13:40.367Z,12.85
2018-05-16T21:16:11.954Z,12.65
2018-05-16T21:18:44.197Z,12.53
2018-05-16T21:21:15.159Z,12.55
2018-05-16T21:23:46.863Z,12.66
2018-05-16T21:26:19.897Z,12.59
2018-05-16T21:28:50.900Z,12.40
2018-05-16T21:31:20.806Z,12.40
2018-05-16T21:33:51.464Z,12.23
2018-05-16T21:36:23.106Z,12.31
2018-05-16T21:38:54.362Z,12.24
2018-05-16T21:41:24.418Z,12.23
2018-05-16T21:43:55.622Z,12.13
2018-05-16T21:46:25.578Z,12.03
2018-05-16T21:48:58.941Z,12.09
2018-05-16T21:51:30.000Z,12.00
2018-05-16T21:54:03.285Z,11.91
2018-05-16T21:56:34.141Z,11.88
2018-05-16T21:59:04.121Z,11.86
2018-05-16T22:01:36.668Z,11.78
2018-05-16T22:04:07.995Z,11.81
2018-05-16T22:06:37.926Z,11.80
2018-05-16T22:09:09.531Z,11.81
2018-05-16T22:11:39.472Z,11.70
2018-05-16T22:14:11.356Z,11.68
2018-05-16T22:16:41.579Z,11.64
2018-05-16T22:19:13.786Z,11.70
2018-05-16T22:21:43.869Z,11.70
2018-05-16T22:24:13.931Z,11.44
2018-05-16T22:26:44.895Z,11.57
2018-05-16T22:29:16.829Z,11.48
2018-05-16T22:32:04.251Z,11.43
2018-05-16T22:34:52.907Z,11.39
2018-05-16T22:37:40.610Z,11.23
2018-05-16T22:40:27.851Z,11.46
2018-05-16T22:42:57.258Z,11.42
2018-05-16T22:45:27.691Z,11.32
2018-05-16T22:48:00.098Z,11.33
2018-05-16T22:50:32.138Z,11.38
2018-05-16T22:53:03.744Z,11.27
2018-05-16T22:55:33.729Z,11.38
2018-05-16T22:58:05.633Z,11.31
2018-05-16T23:00:41.724Z,11.25
2018-05-16T23:03:12.222Z,11.39
2018-05-16T23:05:43.737Z,11.21
2018-05-16T23:08:14.998Z,11.21
2018-05-16T23:10:45.093Z,11.14
2018-05-16T23:13:15.052Z,11.14
2018-05-16T23:15:45.546Z,11.21
2018-05-16T23:18:17.359Z,11.13
2018-05-16T23:20:48.622Z,11.25
2018-05-16T23:23:20.181Z,11.04
2018-05-16T23:25:51.937Z,11.14
2018-05-16T23:28:23.973Z,11.04
2018-05-16T23:30:56.232Z,11.10
2018-05-16T23:33:27.379Z,11.14
2018-05-16T23:35:57.434Z,11.10
2018-05-16T23:38:28.912Z,10.97
2018-05-16T23:41:00.264Z,10.99
2018-05-16T23:43:30.292Z,11.10
2018-05-16T23:46:00.809Z,11.15
2018-05-16T23:48:32.191Z,11.02
2018-05-16T23:51:03.534Z,11.09
2018-05-16T23:53:34.080Z,10.99
2018-05-16T23:56:05.906Z,11.00
2018-05-16T23:58:37.801Z,10.99
